LGKPLGKO

Guest
Details From LGKP - KARPATHOS
To LGKO - KOS
Flight Number -
Tags generated
Created
Modified
Stats Distance 83 nm / 153 km
Max Altitude 0 ft / 0 m
Waypoints 3
Social Downloads 0
Likes 0
Share VATSIM

Download

Looking for another format? Having issues loading an existing format? Contact us
Advertisement - Login to hide

Notes

Basic altitude profile: - Ascent Rate: 2500ft/min - Ascent Speed: 250kts - Cruise Altitude: 35000ft - Cruise Speed: 420kts - Descent Rate: 1500ft/min - Descent Speed: 250kts Options: - Use NATs: yes - Use PACOTS: yes - Use low airways: yes - Use high airways: yes

Route

LGKP KRC LGKO

ID Type Via Altitude Latitude Longitude Leg Dist Tot Dist Heading (true) Name
O LGKP APT - 0 ft / 0 m 35.42141˚ 27.14601˚ - 0 nm - KARPATHOS
KRC NDB - 0 ft / 0 m 35.41972˚ 27.15000˚ 0 nm 0 nm 117° / 117° KARPATHOS NDB
O LGKO APT - 0 ft / 0 m 36.79440˚ 27.09076˚ 82 nm 82 nm 358° / 358° KOS

Altitude Profile

Advertisement - Login to hide

LGKP

Details ICAO LGKP (AOK)
Name KARPATHOS
Region Greece
Timezone Europe/Athens (UTC+2.0)
Stats Elevation 66 ft / 20 m (AMSL)
Location 35.421407° 27.146007°
Runways 1
Magnetic Variation 4.590° E

METAR

LGKP 172320Z AUTO 28005KT //// // ////// 16/14 Q1017 RE//

Decode

TAF

Not found

Departure Runways

ID Width Length Bearing (true) Bearing (mag) Surface Threshold Offset Overrun Length
12 98 ft / 30 m 7,866 ft / 2,398 m 124.49° 119.90° Asphalt 492 ft / 150 m 983 ft / 300 m
30 98 ft / 30 m 7,866 ft / 2,398 m 304.50° 299.91° Asphalt 492 ft / 150 m 458 ft / 140 m

LGKO

Details ICAO LGKO (KGS)
Name KOS
Region Greece
Timezone Europe/Athens (UTC+2.0)
Stats Elevation 412 ft / 126 m (AMSL)
Location 36.794403° 27.090764°
Runways 1
Magnetic Variation 4.724° E

METAR

LGKO 172320Z 25004KT 9999 FEW015 15/13 Q1016

Decode

TAF

TAF LGKO 171700Z 1718/1818 25016KT 9999 SCT018 PROB40 TEMPO 1718/1721 5000 RA SCT018 BKN040 TEMPO 1812/1818 25016G26KT PROB30 TEMPO 1812/1818 5000 RA SCT018 BKN040

Decode

Destination Runways

ID Width Length Bearing (true) Bearing (mag) Surface Threshold Offset Overrun Length
14 148 ft / 45 m 7,923 ft / 2,415 m 148.29° 143.57° Asphalt 0 ft / 0 m 240 ft / 73 m
32 148 ft / 45 m 7,923 ft / 2,415 m 328.30° 323.58° Asphalt 0 ft / 0 m 205 ft / 62 m

Popular Alternatives